Nearby METAR Reports

 

KSJC - San Jose, California, USA
Distance from station: NE 9mi, 14km
Updated: 05/21/2019 7:53am
Overcast
Overcast
 Wind from S
Wind: S 5 mph , 7 km/h
Temperature: 52°F , 11°C
Dew Point: 52°F , 11°C
Humidity: 100%
Barometer: 29.95 inHg , 1014.2 hPa
Clouds: Overcast
Visibility: 10 miles , 16 km
Cloud details: Few Clouds 2700 ft
Mostly cloudy 3200 ft
Overcast 6000 ft
2019/05/21 12:53 KSJC 211253Z 18004KT 10SM FEW027 BKN032 OVC060 11/11 A2995 RMK AO2 SLP142 T01110106 $
KNUQ - Moffett Nas/Mtn, California, USA
Distance from station: N 9mi, 14km
Updated: 05/21/2019 7:56am
Overcast
Overcast
 Wind from varies
Wind: varies 3 mph , 6 km/h
Temperature: 54°F , 12°C
Dew Point: 48°F , 9°C
Humidity: 82%
Barometer: 29.96 inHg , 1014.6 hPa
Clouds: Overcast
Visibility: 10 miles , 16 km
Cloud details: Mostly cloudy 5000 ft
Overcast 6500 ft
2019/05/21 12:56 KNUQ 211256Z AUTO VRB03KT 10SM BKN050 OVC065 12/09 A2996 RMK AO2 SLP146 T01220094 $
 
KPAO - Palo Alto, California, USA
Distance from station: NNW 14mi, 23km
Updated: 05/20/2019 10:47pm
NOT Current
Mostly cloudy
Mostly cloudy
 Wind from varies
Wind: varies 6 mph , 9 km/h
Temperature: 55°F , 13°C
Dew Point: 46°F , 8°C
Humidity: 72%
Barometer: 30.01 inHg , 1016.3 hPa
Clouds: Mostly cloudy
Visibility: 10 miles , 16 km
Cloud details: Partly cloudy 4000 ft
Mostly cloudy 12000 ft
2019/05/21 03:47 KPAO 210347Z VRB05KT 10SM SCT040 BKN120 13/08 A3001 RMK LAST
KRHV - San Jose/Reid, California, USA
Distance from station: ENE 12mi, 19km
Updated: 05/20/2019 9:59pm
NOT Current
Partly cloudy
Partly cloudy
 Wind from NW
Wind: NW 10 mph , 17 km/h
Temperature: 59°F , 15°C
Dew Point: 45°F , 7°C
Humidity: 59%
Barometer: 30.01 inHg , 1016.3 hPa
Clouds: Partly cloudy
Visibility: 10 miles , 16 km
Cloud details: Partly cloudy 5000 ft
2019/05/21 02:59 KRHV 210259Z 31009KT 10SM SCT050 15/07 A3001
 
KOAK - Oakland, California, USA
Distance from station: NNW 31mi, 50km
Updated: 05/21/2019 8:45am
Light rain, Mist, Overcast
Light rain, Mist, Overcast
 Wind from W
Wind: W 16 mph , 26 km/h
Temperature: 54°F , 12°C
Dew Point: 48°F , 9°C
Humidity: 82%
Barometer: 29.95 inHg , 1014.2 hPa
Summary: Light rain, Mist
Clouds: Overcast
Visibility: 6 miles , 10 km
Cloud details: Few Clouds 1200 ft
Mostly cloudy 2900 ft
Overcast 3700 ft
2019/05/21 13:45 KOAK 211345Z 28014KT 6SM -RA BR FEW012 BKN029 OVC037 12/09 A2995 RMK AO2 RAB19 P0003 T01220094 $
KSQL - San Carlos Airpo, California, USA
Distance from station: NW 21mi, 34km
Updated: 05/20/2019 10:54pm
NOT Current
Mostly cloudy
Mostly cloudy
 Wind from SSW
Wind: SSW 5 mph , 7 km/h
Temperature: 57°F , 14°C
Dew Point: 48°F , 9°C
Humidity: 72%
Barometer: 30.01 inHg , 1016.3 hPa
Clouds: Mostly cloudy
Visibility: 10 miles , 16 km
Cloud details: Partly cloudy 2300 ft
Mostly cloudy 8500 ft
2019/05/21 03:54 KSQL 210354Z 20004KT 10SM SCT023 BKN085 14/09 A3001 RMK LAST
 
KSFO - San Francisco, California, USA
Distance from station: NW 30mi, 49km
Updated: 05/21/2019 7:56am
Mostly cloudy
Mostly cloudy
 Wind from W
Wind: W 10 mph , 17 km/h
Temperature: 54°F , 12°C
Dew Point: 48°F , 9°C
Humidity: 82%
Barometer: 29.94 inHg , 1013.9 hPa
Clouds: Mostly cloudy
Visibility: 8 miles , 13 km
Cloud details: Few Clouds 3500 ft
Partly cloudy 4700 ft
Mostly cloudy 6500 ft
2019/05/21 12:56 KSFO 211256Z 26009KT 8SM FEW035 SCT047 BKN065 12/09 A2994 RMK AO2 RAE01 SLP139 P0000 T01220089
KE16 - San Martin, California, USA
Distance from station: ESE 27mi, 43km
Updated: 05/19/2019 12:45pm
NOT Current
Partly cloudy
Partly cloudy
 Wind from SE
Wind: SE 10 mph , 17 km/h
Temperature: 54°F , 12°C
Dew Point: 50°F , 10°C
Humidity: 88%
Barometer: 29.83 inHg , 1010.2 hPa
Clouds: Partly cloudy
Visibility: 10 miles , 16 km
Cloud details: Few Clouds 4800 ft
Partly cloudy 5500 ft
2019/05/19 17:45 KE16 191745Z AUTO 13009KT 10SM FEW048 SCT055 12/10 A2983 RMK AO2
 
KWVI - Watsonville, California, USA
Distance from station: SSE 27mi, 44km
Updated: 05/21/2019 7:53am
Overcast
Overcast
 Wind from WSW
Wind: WSW 3 mph , 6 km/h
Temperature: 50°F , 10°C
Dew Point: 48°F , 9°C
Humidity: 94%
Barometer: 29.96 inHg , 1014.6 hPa
Clouds: Overcast
Visibility: 10 miles , 16 km
Cloud details: Overcast 6000 ft
2019/05/21 12:53 KWVI 211253Z AUTO 24003KT 10SM OVC060 10/09 A2996 RMK AO2 SLP145 T01000094
KHAF - Half Moon Bay, California, USA
Distance from station: WNW 31mi, 50km
Updated: 05/21/2019 8:35am
Overcast
Overcast
 Wind from NW
Wind: NW 8 mph , 13 km/h
Temperature: 52°F , 11°C
Dew Point: 48°F , 9°C
Humidity: 88%
Barometer: 29.97 inHg , 1014.9 hPa
Clouds: Overcast
Visibility: 8 miles , 13 km
Cloud details: Few Clouds 2900 ft
Mostly cloudy 4100 ft
Overcast 4700 ft
2019/05/21 13:35 KHAF 211335Z AUTO 32007KT 8SM FEW029 BKN041 OVC047 11/09 A2997 RMK AO2
 
KHWD - Hayward, California, USA
Distance from station: N 28mi, 44km
Updated: 05/21/2019 7:54am
Overcast
Overcast
 Wind from W
Wind: W 10 mph , 17 km/h
Temperature: 55°F , 13°C
Dew Point: 46°F , 8°C
Humidity: 72%
Barometer: 29.94 inHg , 1013.9 hPa
Clouds: Overcast
Visibility: 10 miles , 16 km
Cloud details: Overcast 6000 ft
2019/05/21 12:54 KHWD 211254Z AUTO 28009KT 10SM OVC060 13/08 A2994 RMK AO2 RAB14E27 SLP148 P0001 T01280078
KLVK - Livermore, California, USA
Distance from station: NNE 31mi, 51km
Updated: 05/21/2019 7:53am
Light rain, Mist, Overcast
Light rain, Mist, Overcast
 Wind from W
Wind: W 18 mph , 30 km/h, Gust: 24 mph , 39 km/h
Temperature: 52°F , 11°C
Dew Point: 48°F , 9°C
Humidity: 88%
Barometer: 29.93 inHg , 1013.5 hPa
Summary: Light rain, Mist
Clouds: Overcast
Visibility: 5 miles , 8 km
Cloud details: Few Clouds 2800 ft
Mostly cloudy 4800 ft
Overcast 6000 ft
2019/05/21 12:53 KLVK 211253Z AUTO 27016G21KT 5SM -RA BR FEW028 BKN048 OVC060 11/09 A2993 RMK AO2 RAB26 SLP133 P0000 T01110089